Time;durP1;ratioP1;P1;durP2;ratioP2;P2;SDS_P1;SDS_P2;PMS_P1;PMS_P2;Temp;Humidity;BMP_temperature;BMP_pressure;BME280_temperature;BME280_humidity;BME280_pressure;Samples;Min_cycle;Max_cycle;Signal;HPM_P1;HPM_P2
2023/08/31 04:01:05;;;;;;;4.10;3.35;;;12.40;99.90;;;;;;6103358;23;20234;-69
2023/08/31 04:03:32;;;;;;;4.22;3.42;;;12.30;99.90;;;;;;6151186;23;20167;-69
2023/08/31 04:05:59;;;;;;;2.85;2.65;;;12.30;99.90;;;;;;6152315;23;20186;-69
2023/08/31 04:08:26;;;;;;;7.32;4.15;;;12.30;99.90;;;;;;6152252;23;20183;-69
2023/08/31 04:10:52;;;;;;;4.93;3.75;;;12.20;99.90;;;;;;6151729;23;20203;-69
2023/08/31 04:13:19;;;;;;;5.28;3.75;;;12.20;99.90;;;;;;6152613;23;20179;-69
2023/08/31 04:15:46;;;;;;;3.40;3.20;;;12.20;99.90;;;;;;6153034;23;20187;-69
2023/08/31 04:18:14;;;;;;;6.75;4.85;;;12.20;99.90;;;;;;6154099;23;20520;-70
2023/08/31 04:20:49;;;;;;;5.07;3.47;;;12.20;99.90;;;;;;6153080;23;20523;-70
2023/08/31 04:23:15;;;;;;;6.40;4.20;;;12.20;99.90;;;;;;6153028;23;20171;-70
2023/08/31 04:25:42;;;;;;;4.95;3.28;;;12.10;99.90;;;;;;6152529;23;20190;-70
2023/08/31 04:28:09;;;;;;;4.57;2.97;;;12.10;99.90;;;;;;6150784;23;20194;-71
2023/08/31 04:30:36;;;;;;;4.07;3.40;;;12.10;99.90;;;;;;6153287;23;20668;-71
2023/08/31 04:33:04;;;;;;;3.40;3.10;;;12.20;99.90;;;;;;6155191;23;20202;-71
2023/08/31 04:35:32;;;;;;;3.83;3.35;;;12.10;99.90;;;;;;6153614;23;20255;-70
2023/08/31 04:37:59;;;;;;;5.97;4.20;;;12.10;99.90;;;;;;6154922;23;20183;-71
2023/08/31 04:40:26;;;;;;;7.32;4.00;;;12.10;99.90;;;;;;6154552;23;20524;-70
2023/08/31 04:42:53;;;;;;;7.05;4.63;;;12.10;99.90;;;;;;6154638;23;20233;-71
2023/08/31 04:45:20;;;;;;;7.28;4.72;;;12.10;99.90;;;;;;6155278;23;20647;-69
2023/08/31 04:47:47;;;;;;;7.03;4.25;;;12.10;99.90;;;;;;6154834;23;20179;-70
2023/08/31 04:50:13;;;;;;;4.50;4.10;;;12.10;99.90;;;;;;6154143;23;20282;-71
2023/08/31 04:52:41;;;;;;;4.30;3.95;;;12.10;99.90;;;;;;6154340;23;20183;-71
2023/08/31 04:55:08;;;;;;;5.47;4.47;;;12.10;99.90;;;;;;6154923;23;20521;-71
2023/08/31 04:57:35;;;;;;;4.00;3.70;;;12.10;99.90;;;;;;6153014;23;20179;-71
2023/08/31 05:00:03;;;;;;;6.05;4.28;;;12.20;99.90;;;;;;6154721;23;20207;-71
2023/08/31 05:02:29;;;;;;;6.30;4.78;;;12.20;99.90;;;;;;6154483;23;20214;-71
2023/08/31 05:04:56;;;;;;;4.60;4.20;;;12.20;99.90;;;;;;6155359;23;20184;-71
2023/08/31 05:07:23;;;;;;;8.40;4.57;;;12.20;99.90;;;;;;6154988;23;20183;-71
2023/08/31 05:09:51;;;;;;;9.52;5.47;;;12.30;99.90;;;;;;6154742;23;20419;-71
2023/08/31 05:12:18;;;;;;;4.83;4.30;;;12.30;99.90;;;;;;6154280;23;20816;-71
2023/08/31 05:14:45;;;;;;;9.88;5.20;;;12.40;99.90;;;;;;6152682;23;20987;-71
2023/08/31 05:17:11;;;;;;;8.63;4.87;;;12.40;99.90;;;;;;6154737;23;20182;-70
2023/08/31 05:19:38;;;;;;;6.07;5.17;;;12.40;99.90;;;;;;6154425;23;20533;-70
2023/08/31 05:22:05;;;;;;;4.87;4.47;;;12.40;99.90;;;;;;6153818;23;21162;-70
2023/08/31 05:24:32;;;;;;;5.75;4.00;;;12.50;99.90;;;;;;6153570;23;20428;-69
2023/08/31 05:27:00;;;;;;;8.70;4.45;;;12.50;99.90;;;;;;6153807;23;20183;-69
2023/08/31 05:29:26;;;;;;;5.10;4.60;;;12.50;99.90;;;;;;6154141;23;20186;-71
2023/08/31 05:31:53;;;;;;;12.33;4.60;;;12.60;99.90;;;;;;6153379;23;20443;-71
2023/08/31 05:34:22;;;;;;;4.87;4.47;;;12.70;99.90;;;;;;6153120;23;20423;-70
2023/08/31 05:36:49;;;;;;;7.50;4.70;;;12.70;99.90;;;;;;6152896;23;20938;-71
2023/08/31 05:39:16;;;;;;;6.40;4.97;;;12.70;99.90;;;;;;6153649;23;20980;-71
2023/08/31 05:41:43;;;;;;;4.30;3.90;;;12.70;99.90;;;;;;6152558;23;20230;-70
2023/08/31 05:44:11;;;;;;;6.80;4.50;;;12.80;99.90;;;;;;6153341;23;20423;-70
2023/08/31 05:46:39;;;;;;;5.23;4.60;;;12.90;99.90;;;;;;6154020;23;20469;-71
2023/08/31 05:49:06;;;;;;;5.57;5.07;;;12.90;99.90;;;;;;6150631;23;20414;-71
2023/08/31 05:51:33;;;;;;;4.47;4.07;;;13.00;99.90;;;;;;6152957;23;20445;-69
2023/08/31 05:54:00;;;;;;;4.37;3.97;;;13.00;99.90;;;;;;6153962;23;20419;-70
2023/08/31 05:56:27;;;;;;;5.30;4.37;;;13.00;99.90;;;;;;6153154;23;20446;-69
2023/08/31 05:58:54;;;;;;;4.83;4.33;;;13.10;99.90;;;;;;6151752;23;20423;-70
2023/08/31 06:01:23;;;;;;;9.40;4.77;;;13.10;99.90;;;;;;6152356;23;20493;-69
2023/08/31 06:03:49;;;;;;;5.03;3.53;;;13.20;99.90;;;;;;6153034;23;20730;-71
2023/08/31 06:06:16;;;;;;;4.50;4.10;;;13.20;99.90;;;;;;6153195;23;20844;-71
2023/08/31 06:08:43;;;;;;;4.07;3.73;;;13.20;99.90;;;;;;6152693;23;20922;-69
2023/08/31 06:11:10;;;;;;;4.40;4.00;;;13.20;99.90;;;;;;6153649;23;20437;-70
2023/08/31 06:13:38;;;;;;;4.00;3.67;;;13.30;99.90;;;;;;6153924;23;20479;-70
2023/08/31 06:16:05;;;;;;;4.90;3.80;;;13.20;99.90;;;;;;6152587;23;20415;-71
2023/08/31 06:18:33;;;;;;;4.33;3.83;;;13.30;99.90;;;;;;6153506;23;20414;-71
2023/08/31 06:20:59;;;;;;;4.43;3.50;;;13.30;99.90;;;;;;6152913;23;20850;-70
2023/08/31 06:23:26;;;;;;;3.83;3.53;;;13.30;99.90;;;;;;6152777;23;20939;-70
2023/08/31 06:25:53;;;;;;;3.90;3.67;;;13.40;99.90;;;;;;6152481;23;20426;-70
2023/08/31 06:28:20;;;;;;;3.73;3.40;;;13.50;99.90;;;;;;6153855;23;20770;-70
2023/08/31 06:30:47;;;;;;;4.70;3.80;;;13.50;99.90;;;;;;6152256;23;20438;-69
2023/08/31 06:33:14;;;;;;;4.47;3.37;;;13.50;99.90;;;;;;6152925;23;20501;-70
2023/08/31 06:35:42;;;;;;;5.03;4.00;;;13.50;99.90;;;;;;6152734;23;20427;-70
2023/08/31 06:38:08;;;;;;;4.60;4.17;;;13.60;99.90;;;;;;6153629;23;20422;-71
2023/08/31 06:40:35;;;;;;;4.53;3.30;;;13.60;99.90;;;;;;6153156;23;20450;-71
2023/08/31 06:43:03;;;;;;;3.73;3.33;;;13.70;99.90;;;;;;6153335;23;20422;-70
2023/08/31 06:45:30;;;;;;;3.80;3.50;;;13.70;99.90;;;;;;6150905;23;20446;-70
2023/08/31 06:47:56;;;;;;;3.73;3.53;;;13.80;99.90;;;;;;6153080;23;20433;-70
2023/08/31 06:50:23;;;;;;;5.13;4.07;;;13.80;99.90;;;;;;6152992;23;20421;-70
2023/08/31 06:52:51;;;;;;;3.50;3.30;;;13.90;99.90;;;;;;6152560;23;20454;-70
2023/08/31 06:55:18;;;;;;;5.77;3.97;;;13.90;99.90;;;;;;6150490;23;20749;-70
2023/08/31 06:57:45;;;;;;;3.80;3.50;;;14.00;99.90;;;;;;6153531;23;20425;-70
2023/08/31 07:00:13;;;;;;;5.47;3.90;;;14.00;99.90;;;;;;6152181;23;20449;-70
2023/08/31 07:02:41;;;;;;;4.40;4.13;;;14.00;99.90;;;;;;6154191;23;20443;-71
2023/08/31 07:05:08;;;;;;;4.50;4.13;;;14.10;99.90;;;;;;6150739;23;20419;-71
2023/08/31 07:07:35;;;;;;;3.57;3.27;;;14.10;99.90;;;;;;6153439;23;20454;-70
2023/08/31 07:10:05;;;;;;;4.60;4.20;;;14.10;99.90;;;;;;6153321;23;20427;-71
2023/08/31 07:12:32;;;;;;;7.40;4.27;;;14.20;99.90;;;;;;6153209;23;20443;-71
2023/08/31 07:14:59;;;;;;;4.40;3.10;;;14.30;99.90;;;;;;6153202;23;20423;-70
2023/08/31 07:17:25;;;;;;;3.40;3.20;;;14.30;99.90;;;;;;6152783;23;20418;-70
2023/08/31 07:19:53;;;;;;;2.93;2.60;;;14.30;99.90;;;;;;6152785;23;20443;-70
2023/08/31 07:22:20;;;;;;;6.80;3.30;;;14.30;99.90;;;;;;6153242;23;20461;-70
2023/08/31 07:24:46;;;;;;;2.77;2.67;;;14.40;99.90;;;;;;6152157;23;20823;-71
2023/08/31 07:27:15;;;;;;;3.80;3.50;;;14.40;99.90;;;;;;6152364;23;20423;-71
2023/08/31 07:29:41;;;;;;;3.53;3.30;;;14.40;99.90;;;;;;6152776;23;20788;-70
2023/08/31 07:32:08;;;;;;;3.43;3.10;;;14.40;99.90;;;;;;6152838;23;20439;-69
2023/08/31 07:34:35;;;;;;;4.33;3.43;;;14.50;99.90;;;;;;6152590;23;20423;-70
2023/08/31 07:37:02;;;;;;;4.00;3.60;;;14.50;99.90;;;;;;6153925;23;20477;-70
2023/08/31 07:39:29;;;;;;;3.67;3.27;;;14.50;99.90;;;;;;6154753;23;20418;-71
2023/08/31 07:41:55;;;;;;;2.80;2.60;;;14.50;99.90;;;;;;6154175;23;20969;-69
2023/08/31 07:44:24;;;;;;;4.80;3.70;;;14.50;99.90;;;;;;6152930;23;20481;-70
2023/08/31 07:46:51;;;;;;;3.40;3.23;;;14.50;99.90;;;;;;6153809;23;20418;-71
2023/08/31 07:49:18;;;;;;;2.97;2.87;;;14.60;99.90;;;;;;6153216;23;20938;-69
2023/08/31 07:51:44;;;;;;;2.77;2.67;;;14.70;99.90;;;;;;6152825;23;20747;-70
2023/08/31 07:54:12;;;;;;;3.30;3.00;;;14.90;99.90;;;;;;6151930;23;20441;-69
2023/08/31 07:56:41;;;;;;;3.33;2.87;;;15.00;99.90;;;;;;6152309;23;20758;-70
2023/08/31 07:59:08;;;;;;;2.67;2.57;;;15.10;99.90;;;;;;6152063;23;20425;-70
2023/08/31 08:01:36;;;;;;;2.20;2.10;;;15.20;99.90;;;;;;6152099;23;20477;-70
2023/08/31 08:04:02;;;;;;;4.53;2.67;;;15.30;99.90;;;;;;6153084;23;20758;-69
2023/08/31 08:06:29;;;;;;;5.10;2.27;;;15.40;99.90;;;;;;6151382;23;20452;-70
2023/08/31 08:08:56;;;;;;;2.20;2.00;;;15.30;99.90;;;;;;6152961;23;20513;-70
2023/08/31 08:11:23;;;;;;;2.80;2.70;;;15.30;99.90;;;;;;6153663;23;20950;-71
2023/08/31 08:13:50;;;;;;;2.17;2.17;;;15.10;99.90;;;;;;6154254;23;20420;-70
2023/08/31 08:16:17;;;;;;;2.80;2.60;;;15.20;99.90;;;;;;6155066;23;20912;-70
2023/08/31 08:18:45;;;;;;;2.73;2.63;;;15.10;99.90;;;;;;6155394;23;20419;-70
2023/08/31 08:21:11;;;;;;;2.60;2.40;;;15.20;99.90;;;;;;6153279;23;20461;-70
2023/08/31 08:23:38;;;;;;;3.07;2.80;;;15.20;99.90;;;;;;6156513;23;20494;-71
2023/08/31 08:26:05;;;;;;;2.90;2.70;;;15.20;99.90;;;;;;6156714;23;20443;-70
2023/08/31 08:28:32;;;;;;;3.50;3.30;;;15.30;99.90;;;;;;6157799;23;20418;-71
2023/08/31 08:31:03;;;;;;;3.10;2.87;;;15.30;99.90;;;;;;6155396;23;20469;-67
2023/08/31 08:33:29;;;;;;;3.43;3.23;;;15.30;99.90;;;;;;6153158;23;20502;-68
2023/08/31 08:35:58;;;;;;;3.80;3.43;;;15.40;99.90;;;;;;6151834;23;20422;-70
2023/08/31 08:38:27;;;;;;;3.23;2.97;;;15.60;99.90;;;;;;6152632;23;20937;-69
2023/08/31 08:40:53;;;;;;;4.20;2.83;;;15.70;99.90;;;;;;6153457;23;20461;-69
2023/08/31 08:43:26;;;;;;;3.30;3.10;;;15.70;99.90;;;;;;6154931;23;20419;-70
2023/08/31 08:45:54;;;;;;;2.90;2.80;;;15.80;99.90;;;;;;6154699;23;20469;-70
2023/08/31 08:48:22;;;;;;;2.70;2.40;;;15.90;99.90;;;;;;6154797;23;20449;-69
2023/08/31 08:50:49;;;;;;;2.00;1.90;;;15.90;99.90;;;;;;6152107;23;20439;-70
2023/08/31 08:53:17;;;;;;;1.93;1.83;;;15.90;99.90;;;;;;6155231;23;20426;-70
2023/08/31 08:55:44;;;;;;;2.13;2.03;;;15.80;99.90;;;;;;6152393;23;20917;-70
2023/08/31 08:58:11;;;;;;;5.33;2.50;;;15.80;99.90;;;;;;6154911;23;20423;-70
2023/08/31 09:00:38;;;;;;;4.10;1.67;;;15.90;99.90;;;;;;6152679;23;21048;-70
2023/08/31 09:03:05;;;;;;;1.97;1.90;;;15.90;99.90;;;;;;6152402;23;20704;-71
2023/08/31 09:05:33;;;;;;;1.80;1.70;;;15.90;99.90;;;;;;6154088;23;20454;-70
2023/08/31 09:08:02;;;;;;;1.70;1.70;;;16.00;99.90;;;;;;6153573;23;20422;-69
2023/08/31 09:10:36;;;;;;;1.60;1.50;;;16.20;99.90;;;;;;6153318;23;20438;-71
2023/08/31 09:13:08;;;;;;;1.80;1.80;;;16.30;99.90;;;;;;6154427;23;20431;-71
2023/08/31 09:15:41;;;;;;;1.60;1.60;;;16.30;99.90;;;;;;6154421;23;20746;-71
2023/08/31 09:18:08;;;;;;;1.70;1.60;;;16.30;99.90;;;;;;6160764;23;20425;-70
2023/08/31 09:20:46;;;;;;;1.90;1.77;;;16.40;99.90;;;;;;6152380;23;20847;-71
2023/08/31 09:23:13;;;;;;;2.30;2.20;;;16.70;99.90;;;;;;6152419;23;20455;-71
2023/08/31 09:25:48;;;;;;;1.67;1.60;;;16.70;99.90;;;;;;6153286;23;20502;-71
2023/08/31 09:28:15;;;;;;;1.60;1.50;;;16.80;99.90;;;;;;6152152;23;20446;-72
2023/08/31 09:30:43;;;;;;;2.30;1.50;;;16.90;99.90;;;;;;6152094;23;20471;-70
2023/08/31 09:33:12;;;;;;;1.30;1.30;;;16.90;99.90;;;;;;6154267;23;20515;-71
2023/08/31 09:35:48;;;;;;;1.47;1.47;;;16.70;99.90;;;;;;6151214;23;20428;-70
2023/08/31 09:38:16;;;;;;;3.23;1.40;;;16.50;99.90;;;;;;6162568;23;20474;-70
2023/08/31 09:40:45;;;;;;;1.27;1.10;;;16.30;99.90;;;;;;6149730;23;20473;-70
2023/08/31 09:43:11;;;;;;;1.50;1.40;;;16.10;99.90;;;;;;6149522;23;20525;-70
2023/08/31 09:45:42;;;;;;;12.77;4.10;;;15.90;99.90;;;;;;6148702;23;20423;-71
2023/08/31 09:48:09;;;;;;;2.77;2.07;;;15.90;99.90;;;;;;6154089;23;20716;-71
2023/08/31 09:50:39;;;;;;;2.43;1.57;;;15.90;99.90;;;;;;6152677;23;20439;-71
2023/08/31 09:53:09;;;;;;;1.60;1.60;;;15.90;99.90;;;;;;6153906;23;20423;-71
2023/08/31 09:55:39;;;;;;;2.03;1.77;;;15.90;99.90;;;;;;6153189;23;20403;-71
2023/08/31 09:58:08;;;;;;;1.77;1.77;;;15.90;99.90;;;;;;6153715;23;20419;-70
2023/08/31 10:00:37;;;;;;;2.40;2.20;;;15.90;99.90;;;;;;6150312;23;20455;-69
2023/08/31 10:03:06;;;;;;;2.00;2.00;;;15.70;99.90;;;;;;6153990;23;20419;-71
2023/08/31 10:05:33;;;;;;;2.23;2.13;;;15.60;99.90;;;;;;6152558;23;20423;-71
2023/08/31 10:08:01;;;;;;;1.70;1.60;;;15.50;99.90;;;;;;6154650;23;20429;-71
2023/08/31 10:10:30;;;;;;;1.50;1.50;;;15.40;99.90;;;;;;6152364;23;20424;-71
2023/08/31 10:13:00;;;;;;;1.77;1.67;;;15.60;99.90;;;;;;6152264;23;20426;-69
2023/08/31 10:15:33;;;;;;;1.60;1.60;;;15.70;99.90;;;;;;6148812;23;20418;-71
2023/08/31 10:18:00;;;;;;;1.80;1.80;;;15.90;99.90;;;;;;6162506;23;20454;-70
2023/08/31 10:20:31;;;;;;;2.20;2.20;;;16.00;99.90;;;;;;6152293;23;20481;-70
2023/08/31 10:22:58;;;;;;;2.80;1.83;;;16.20;99.90;;;;;;6153258;23;20406;-70
2023/08/31 10:25:26;;;;;;;2.10;2.00;;;16.30;99.90;;;;;;6150903;23;20758;-70
2023/08/31 10:27:54;;;;;;;2.13;2.03;;;16.40;99.90;;;;;;6151359;23;20419;-70
2023/08/31 10:30:29;;;;;;;1.63;1.63;;;16.60;99.90;;;;;;6160827;23;20469;-70
2023/08/31 10:33:24;;;;;;;2.30;2.20;;;16.60;99.90;;;;;;6162305;23;20426;-71
2023/08/31 10:35:53;;;;;;;1.70;1.70;;;16.50;99.90;;;;;;6153407;23;20815;-71
2023/08/31 10:38:28;;;;;;;1.57;1.57;;;16.60;99.90;;;;;;6147719;23;20913;-69
2023/08/31 10:41:20;;;;;;;1.30;1.30;;;16.80;99.90;;;;;;6151050;23;20455;-68
2023/08/31 10:43:49;;;;;;;1.73;1.63;;;16.80;99.90;;;;;;6150731;23;20421;-70
2023/08/31 10:46:19;;;;;;;2.07;1.87;;;16.80;99.90;;;;;;6151468;23;20489;-69
2023/08/31 10:48:53;;;;;;;1.53;1.53;;;16.50;99.90;;;;;;6152640;23;20434;-70
2023/08/31 10:51:23;;;;;;;1.80;1.70;;;16.50;99.90;;;;;;6152210;23;20449;-71
2023/08/31 10:53:50;;;;;;;1.47;1.47;;;16.60;99.90;;;;;;6163060;23;20494;-69
2023/08/31 10:56:17;;;;;;;1.40;1.40;;;16.60;99.90;;;;;;6153425;23;20753;-68
2023/08/31 10:58:55;;;;;;;1.30;1.30;;;16.80;99.90;;;;;;6153466;23;20449;-68
2023/08/31 11:01:57;;;;;;;2.57;1.53;;;17.00;99.90;;;;;;6152277;23;20456;-70
2023/08/31 11:04:24;;;;;;;1.33;1.33;;;17.00;99.90;;;;;;6149314;23;20405;-70
2023/08/31 11:07:13;;;;;;;2.10;1.50;;;17.10;99.90;;;;;;6148988;23;20491;-69
2023/08/31 11:09:39;;;;;;;1.37;1.37;;;17.30;99.90;;;;;;6148555;23;20877;-68
2023/08/31 11:12:07;;;;;;;1.30;1.30;;;17.30;99.90;;;;;;6148606;23;20826;-69
2023/08/31 11:14:33;;;;;;;1.07;1.07;;;17.30;99.90;;;;;;6148900;23;20430;-69
2023/08/31 11:17:04;;;;;;;1.30;1.20;;;17.40;99.90;;;;;;6149035;23;20430;-69
2023/08/31 11:19:31;;;;;;;1.10;1.10;;;17.50;99.90;;;;;;6147733;23;20413;-70
2023/08/31 11:21:59;;;;;;;1.10;1.10;;;17.60;99.90;;;;;;6148450;23;20480;-70
2023/08/31 11:24:26;;;;;;;0.90;0.90;;;17.50;99.90;;;;;;6147557;23;20421;-69
2023/08/31 11:26:54;;;;;;;1.50;1.50;;;17.60;99.90;;;;;;6150259;23;20491;-71
2023/08/31 11:29:20;;;;;;;1.53;1.43;;;17.60;99.90;;;;;;6152057;23;20419;-71
2023/08/31 11:31:47;;;;;;;0.93;0.87;;;17.60;99.90;;;;;;6151903;23;20436;-68
2023/08/31 11:34:16;;;;;;;0.90;0.90;;;17.60;99.90;;;;;;6151859;23;20426;-69
2023/08/31 11:36:44;;;;;;;1.20;1.20;;;17.50;99.90;;;;;;6152425;23;20426;-69
2023/08/31 11:39:11;;;;;;;0.93;0.93;;;17.70;99.90;;;;;;6152493;23;20428;-75
2023/08/31 11:41:41;;;;;;;2.30;2.03;;;17.80;99.90;;;;;;6152751;23;20450;-70
2023/08/31 11:44:08;;;;;;;1.10;1.10;;;18.10;99.90;;;;;;6151843;23;20406;-69
2023/08/31 11:46:35;;;;;;;1.10;1.10;;;18.20;99.90;;;;;;6152251;23;20428;-71
2023/08/31 11:49:04;;;;;;;1.00;1.00;;;18.20;99.90;;;;;;6154766;23;20423;-69
2023/08/31 11:51:33;;;;;;;1.83;1.47;;;18.20;99.90;;;;;;6155676;23;20437;-69
2023/08/31 11:54:02;;;;;;;1.40;1.40;;;18.00;99.90;;;;;;6153397;23;20948;-69
2023/08/31 11:56:29;;;;;;;3.80;2.20;;;18.00;99.90;;;;;;6154905;23;20467;-69
2023/08/31 11:58:57;;;;;;;1.90;1.80;;;18.00;99.90;;;;;;6155264;23;20421;-70
2023/08/31 12:01:24;;;;;;;1.80;1.67;;;18.10;99.90;;;;;;6154669;23;20541;-68
2023/08/31 12:03:50;;;;;;;2.20;2.10;;;18.10;99.90;;;;;;6154936;23;20426;-68
2023/08/31 12:06:18;;;;;;;1.70;1.40;;;18.10;99.90;;;;;;6154431;23;20421;-69
2023/08/31 12:08:46;;;;;;;1.30;1.10;;;18.20;99.90;;;;;;6155244;23;20524;-69
2023/08/31 12:11:14;;;;;;;1.23;0.90;;;18.20;99.90;;;;;;6155243;23;20449;-69
2023/08/31 12:13:41;;;;;;;2.30;1.63;;;18.30;99.90;;;;;;6154292;23;20421;-69
2023/08/31 12:16:13;;;;;;;1.37;1.27;;;18.30;99.90;;;;;;6153607;23;20506;-68
2023/08/31 12:18:40;;;;;;;1.50;1.50;;;18.30;99.90;;;;;;6153053;23;20406;-69
2023/08/31 12:21:07;;;;;;;1.43;1.43;;;18.30;99.90;;;;;;6153030;23;20450;-70
2023/08/31 12:23:34;;;;;;;1.23;1.23;;;18.20;99.90;;;;;;6153848;23;20420;-69
2023/08/31 12:26:03;;;;;;;1.27;1.27;;;18.10;99.90;;;;;;6155380;23;20685;-69
2023/08/31 12:28:30;;;;;;;1.60;1.50;;;17.90;99.90;;;;;;6153856;23;20425;-69
2023/08/31 12:30:57;;;;;;;1.27;1.27;;;17.80;99.90;;;;;;6153949;23;20450;-69
2023/08/31 12:33:24;;;;;;;1.67;1.57;;;17.70;99.90;;;;;;6155222;23;20771;-69
2023/08/31 12:35:51;;;;;;;1.47;1.47;;;17.60;99.90;;;;;;6154610;23;20457;-69
2023/08/31 12:38:18;;;;;;;1.77;1.77;;;17.60;99.90;;;;;;6154238;23;20421;-70
2023/08/31 12:40:45;;;;;;;2.30;2.30;;;17.80;99.90;;;;;;6154939;23;20448;-69
2023/08/31 12:43:13;;;;;;;1.60;1.50;;;17.80;99.90;;;;;;6154586;23;20456;-69
2023/08/31 12:45:40;;;;;;;1.20;1.20;;;17.90;99.90;;;;;;6154579;23;20425;-70
2023/08/31 12:48:08;;;;;;;1.40;1.40;;;18.00;99.90;;;;;;6153927;23;20429;-69
2023/08/31 12:50:35;;;;;;;1.67;1.57;;;18.20;99.90;;;;;;6153692;23;20457;-70
2023/08/31 12:53:01;;;;;;;1.37;1.37;;;18.40;99.90;;;;;;6154043;23;20414;-70
2023/08/31 12:55:30;;;;;;;1.70;1.70;;;18.50;99.90;;;;;;6155026;23;20761;-71
2023/08/31 12:57:57;;;;;;;1.73;1.73;;;18.70;99.90;;;;;;6155211;23;20490;-67
2023/08/31 13:00:27;;;;;;;1.43;1.43;;;18.90;99.90;;;;;;6154353;23;20426;-69
2023/08/31 13:02:54;;;;;;;3.40;1.40;;;19.00;99.90;;;;;;6155074;23;20466;-72
2023/08/31 13:05:21;;;;;;;1.60;1.60;;;19.00;99.90;;;;;;6153699;23;20428;-69
2023/08/31 13:07:48;;;;;;;1.37;1.33;;;19.10;99.90;;;;;;6155075;23;20429;-70
2023/08/31 13:10:15;;;;;;;1.07;1.07;;;19.10;99.90;;;;;;6154272;23;20903;-71
2023/08/31 13:12:41;;;;;;;1.20;1.13;;;19.00;99.90;;;;;;6154999;23;20723;-70
2023/08/31 13:15:09;;;;;;;1.10;1.10;;;18.90;99.90;;;;;;6154326;23;20426;-69
2023/08/31 13:17:37;;;;;;;1.57;1.57;;;18.80;99.90;;;;;;6153873;23;20495;-69
2023/08/31 13:20:05;;;;;;;1.50;1.50;;;18.70;99.90;;;;;;6154037;23;20422;-70
2023/08/31 13:22:31;;;;;;;0.93;0.93;;;18.60;99.90;;;;;;6151318;23;20965;-70
2023/08/31 13:24:58;;;;;;;1.27;1.27;;;18.80;99.90;;;;;;6153418;23;20429;-72
2023/08/31 13:27:25;;;;;;;1.20;1.20;;;19.00;99.90;;;;;;6152731;23;20425;-71
2023/08/31 13:29:52;;;;;;;0.90;0.90;;;19.00;99.90;;;;;;6153150;23;20426;-70
2023/08/31 13:32:19;;;;;;;2.73;0.80;;;19.10;99.90;;;;;;6153736;23;20442;-72
2023/08/31 13:34:47;;;;;;;1.07;1.07;;;19.00;99.90;;;;;;6153315;23;20429;-69
2023/08/31 13:37:14;;;;;;;1.47;0.73;;;18.80;99.90;;;;;;6154366;23;20478;-68
2023/08/31 13:39:41;;;;;;;1.00;1.00;;;18.70;99.90;;;;;;6153912;23;20473;-68
2023/08/31 13:42:08;;;;;;;0.80;0.67;;;18.60;99.90;;;;;;6152444;23;20504;-71
2023/08/31 13:44:35;;;;;;;1.93;0.70;;;18.50;99.90;;;;;;6154124;23;20433;-68
2023/08/31 13:47:03;;;;;;;0.80;0.60;;;18.40;99.90;;;;;;6151621;23;20472;-68
2023/08/31 13:49:30;;;;;;;0.53;0.40;;;17.70;99.90;;;;;;6151423;23;20844;-69
2023/08/31 13:51:58;;;;;;;0.30;0.30;;;16.90;99.90;;;;;;6154071;23;20589;-69
2023/08/31 13:54:25;;;;;;;1.03;0.40;;;16.20;99.90;;;;;;6153724;23;20755;-70
2023/08/31 13:56:52;;;;;;;0.33;0.33;;;15.70;99.90;;;;;;6154188;23;20474;-70
2023/08/31 13:59:19;;;;;;;1.80;0.60;;;15.50;99.90;;;;;;6153724;23;20441;-71
2023/08/31 14:01:45;;;;;;;0.30;0.30;;;15.40;99.90;;;;;;6153281;23;20767;-70
2023/08/31 14:04:12;;;;;;;0.33;0.33;;;15.30;99.90;;;;;;6152641;23;20423;-70
2023/08/31 14:06:39;;;;;;;0.50;0.47;;;15.20;99.90;;;;;;6153631;23;20418;-70
2023/08/31 14:09:08;;;;;;;0.37;0.30;;;15.10;99.90;;;;;;6153785;23;20425;-69
2023/08/31 14:11:35;;;;;;;1.20;0.40;;;15.00;99.90;;;;;;6153078;23;20443;-70
2023/08/31 14:14:05;;;;;;;0.37;0.37;;;14.90;99.90;;;;;;6153014;23;20419;-70
2023/08/31 14:16:33;;;;;;;0.40;0.30;;;14.80;99.90;;;;;;6153738;23;20419;-69
2023/08/31 14:19:00;;;;;;;0.40;0.40;;;14.70;99.90;;;;;;6151945;23;20454;-69
2023/08/31 14:21:26;;;;;;;1.50;0.73;;;14.70;99.90;;;;;;6153361;23;20442;-70
2023/08/31 14:23:55;;;;;;;1.60;0.30;;;14.60;99.90;;;;;;6153557;23;20450;-69
2023/08/31 14:26:24;;;;;;;0.30;0.30;;;14.60;99.90;;;;;;6152678;23;20446;-70
2023/08/31 14:28:51;;;;;;;0.80;0.43;;;14.70;99.90;;;;;;6150352;23;20458;-70
2023/08/31 14:31:18;;;;;;;0.30;0.30;;;14.80;99.90;;;;;;6151432;23;20469;-69
2023/08/31 14:33:44;;;;;;;0.67;0.67;;;14.70;99.90;;;;;;6153184;23;20466;-69
2023/08/31 14:36:12;;;;;;;0.83;0.43;;;14.80;99.90;;;;;;6153004;23;20466;-69
2023/08/31 14:38:39;;;;;;;0.37;0.37;;;14.90;99.90;;;;;;6151841;23;21117;-69
2023/08/31 14:41:06;;;;;;;0.30;0.30;;;15.00;99.90;;;;;;6153075;23;20442;-70
2023/08/31 14:43:34;;;;;;;0.50;0.50;;;15.10;99.90;;;;;;6153678;23;20478;-68
2023/08/31 14:46:01;;;;;;;0.70;0.70;;;15.30;99.90;;;;;;6153407;23;20419;-68
2023/08/31 14:48:28;;;;;;;0.63;0.63;;;15.40;99.90;;;;;;6152860;23;20793;-68
2023/08/31 14:50:55;;;;;;;0.47;0.37;;;15.50;99.90;;;;;;6153112;23;20755;-68
2023/08/31 14:53:23;;;;;;;0.37;0.37;;;15.60;99.90;;;;;;6153483;23;20422;-69
2023/08/31 14:55:50;;;;;;;0.70;0.70;;;15.50;99.90;;;;;;6152860;23;20423;-69
2023/08/31 14:58:17;;;;;;;1.13;1.07;;;15.60;99.90;;;;;;6151518;23;20715;-69
2023/08/31 15:00:45;;;;;;;0.60;0.60;;;15.60;99.90;;;;;;6152295;23;20465;-69
2023/08/31 15:03:13;;;;;;;0.90;0.90;;;15.70;99.90;;;;;;6153397;23;20446;-69
2023/08/31 15:05:41;;;;;;;0.60;0.60;;;15.80;99.90;;;;;;6150423;23;20424;-69
2023/08/31 15:08:08;;;;;;;0.80;0.80;;;15.70;99.90;;;;;;6152621;23;20430;-69
2023/08/31 15:10:35;;;;;;;0.70;0.70;;;15.80;99.90;;;;;;6152303;23;20425;-69
2023/08/31 15:13:02;;;;;;;1.00;0.83;;;15.80;99.90;;;;;;6150660;23;20423;-69
2023/08/31 15:15:29;;;;;;;0.60;0.60;;;15.90;99.90;;;;;;6152187;23;20453;-69
2023/08/31 15:17:58;;;;;;;0.90;0.90;;;15.90;99.90;;;;;;6153315;23;20426;-69
2023/08/31 15:20:25;;;;;;;0.53;0.53;;;16.00;99.90;;;;;;6152287;23;20427;-68
2023/08/31 15:22:52;;;;;;;0.53;0.53;;;16.00;99.90;;;;;;6151775;23;20505;-68
2023/08/31 15:25:18;;;;;;;0.90;0.90;;;16.00;99.90;;;;;;6151429;23;20910;-68
2023/08/31 15:27:45;;;;;;;0.87;0.80;;;16.00;99.90;;;;;;6151305;23;20430;-68
2023/08/31 15:30:15;;;;;;;0.70;0.70;;;16.10;99.90;;;;;;6151459;23;20429;-68
2023/08/31 15:32:41;;;;;;;0.40;0.40;;;16.10;99.90;;;;;;6152332;23;20446;-68
2023/08/31 15:35:10;;;;;;;0.30;0.30;;;16.00;99.90;;;;;;6152390;23;20422;-68
2023/08/31 15:37:37;;;;;;;0.37;0.37;;;16.00;99.90;;;;;;6152113;23;20758;-69
2023/08/31 15:40:04;;;;;;;0.70;0.70;;;16.00;99.90;;;;;;6152236;23;20398;-68
2023/08/31 15:42:30;;;;;;;0.43;0.43;;;16.00;99.90;;;;;;6152990;23;20458;-69
2023/08/31 15:44:57;;;;;;;0.43;0.43;;;16.10;99.90;;;;;;6153267;23;20418;-68
2023/08/31 15:47:24;;;;;;;0.43;0.43;;;16.10;99.90;;;;;;6150542;23;20423;-68
2023/08/31 15:49:51;;;;;;;0.50;0.50;;;16.10;99.90;;;;;;6151350;23;20422;-68
2023/08/31 15:52:19;;;;;;;0.70;0.70;;;16.20;99.90;;;;;;6152287;23;20442;-68
2023/08/31 15:54:46;;;;;;;0.83;0.83;;;16.20;99.90;;;;;;6152591;23;20423;-68
2023/08/31 15:57:12;;;;;;;0.80;0.40;;;16.20;99.90;;;;;;6148920;23;20506;-69
2023/08/31 15:59:39;;;;;;;0.50;0.40;;;16.30;99.90;;;;;;6150782;23;20418;-69
2023/08/31 16:02:07;;;;;;;0.30;0.30;;;16.30;99.90;;;;;;6150373;23;20537;-69
2023/08/31 16:04:34;;;;;;;0.50;0.50;;;16.20;99.90;;;;;;6153368;23;20445;-70
2023/08/31 16:07:01;;;;;;;0.93;0.50;;;16.10;99.90;;;;;;6152504;23;20753;-67
2023/08/31 16:09:29;;;;;;;0.43;0.43;;;16.10;99.90;;;;;;6151568;23;20429;-69
2023/08/31 16:11:56;;;;;;;1.07;1.03;;;16.00;99.90;;;;;;6154261;23;20434;-68
2023/08/31 16:14:23;;;;;;;0.80;0.47;;;16.00;99.90;;;;;;6152574;23;20450;-69
2023/08/31 16:16:50;;;;;;;0.40;0.40;;;16.00;99.90;;;;;;6151442;23;20423;-68
2023/08/31 16:19:16;;;;;;;4.40;0.70;;;15.90;99.90;;;;;;6150316;23;20432;-69
2023/08/31 16:21:43;;;;;;;0.60;0.60;;;15.90;99.90;;;;;;6149823;23;20514;-69
2023/08/31 16:24:10;;;;;;;0.70;0.70;;;15.90;99.90;;;;;;6148306;23;20458;-72
2023/08/31 16:26:38;;;;;;;1.27;0.77;;;15.90;99.90;;;;;;6147363;23;21216;-69
2023/08/31 16:29:04;;;;;;;0.37;0.37;;;15.90;99.90;;;;;;6152233;23;20419;-69
2023/08/31 16:31:32;;;;;;;1.40;0.60;;;15.90;99.90;;;;;;6152331;23;20446;-68
2023/08/31 16:34:00;;;;;;;4.13;0.60;;;15.90;99.90;;;;;;6152944;23;20431;-68
2023/08/31 16:36:27;;;;;;;1.27;0.70;;;15.80;99.90;;;;;;6152031;23;20418;-69
2023/08/31 16:38:54;;;;;;;1.03;0.60;;;15.80;99.90;;;;;;6154305;23;20489;-69
2023/08/31 16:41:21;;;;;;;0.40;0.40;;;15.80;99.90;;;;;;6154008;23;20449;-69
2023/08/31 16:43:49;;;;;;;4.93;1.10;;;15.70;99.90;;;;;;6154857;23;20781;-69
2023/08/31 16:46:17;;;;;;;0.70;0.70;;;15.70;99.90;;;;;;6154295;23;20422;-69
2023/08/31 16:48:43;;;;;;;1.43;0.70;;;15.70;99.90;;;;;;6151965;23;20425;-70
2023/08/31 16:51:10;;;;;;;1.80;0.47;;;15.70;99.90;;;;;;6153517;23;20438;-69